createdAt,value
2023-05-20T00:01:44.064Z,84.97499167423891
2023-05-20T00:04:41.616Z,84.71551983055781
2023-05-20T00:07:37.128Z,84.29130994084963
2023-05-20T00:10:32.687Z,86.58864877665582
2023-05-20T00:13:28.281Z,86.26743016425591
2023-05-20T00:16:24.896Z,87.36823118754421
2023-05-20T00:19:20.427Z,86.07640778901221
2023-05-20T00:22:15.992Z,84.86781273981153
2023-05-20T00:25:14.520Z,85.12836192559656
2023-05-20T00:28:10.151Z,84.85693430462601
2023-05-20T00:31:05.654Z,86.13690315120107
2023-05-20T00:34:01.192Z,86.80005230820133
2023-05-20T00:36:56.778Z,87.27848891512362
2023-05-20T00:39:52.357Z,85.63137166554931
2023-05-20T00:42:51.857Z,86.1724477764482
2023-05-20T00:45:47.509Z,86.75980481688234
2023-05-20T00:48:45.006Z,87.28229470980229
2023-05-20T00:51:40.551Z,88.43359716524526
2023-05-20T00:54:36.094Z,87.71567111472055
2023-05-20T00:57:31.702Z,87.87240365894073
2023-05-20T01:00:27.242Z,88.08092360828167
2023-05-20T01:03:23.002Z,87.71557756640141
2023-05-20T01:06:18.357Z,89.29998162929438
2023-05-20T01:09:13.911Z,88.82770088684057
2023-05-20T01:12:18.477Z,88.89668373620451
2023-05-20T01:15:21.030Z,88.35929404792819
2023-05-20T01:18:20.642Z,88.56214377604316
2023-05-20T01:21:19.097Z,89.2423804582082
2023-05-20T01:24:14.673Z,90.15182108183143
2023-05-20T01:27:11.229Z,91.53089354660736
2023-05-20T01:30:08.785Z,92.65709930659946
2023-05-20T01:33:11.436Z,92.06434047811983
2023-05-20T01:36:08.902Z,91.86082534440351
2023-05-20T01:39:06.473Z,92.79042334575264
2023-05-20T01:42:01.986Z,93.28553533311224
2023-05-20T01:44:59.558Z,93.24193127362474
2023-05-20T01:47:56.199Z,93.55747823587996
2023-05-20T01:50:51.679Z,92.94063349075815
2023-05-20T01:53:47.275Z,92.51509543188341
2023-05-20T01:56:42.791Z,93.1771064307979
2023-05-20T01:59:39.363Z,91.96997691164091
2023-05-20T02:02:36.088Z,91.40928889473837
2023-05-20T02:05:31.544Z,91.77015049375856
2023-05-20T02:08:27.064Z,92.54946914866845
2023-05-20T02:11:22.608Z,92.06545057971262
2023-05-20T02:14:18.157Z,92.57675629101476
2023-05-20T02:17:15.733Z,92.80486276629873
2023-05-20T02:20:12.301Z,93.04779692779522
2023-05-20T02:23:08.835Z,93.36488414196111
2023-05-20T02:26:05.398Z,93.25247688903139
2023-05-20T02:29:00.953Z,93.42501823137736
2023-05-20T02:31:56.538Z,92.88028127770853
2023-05-20T02:34:53.092Z,92.80563398248725
2023-05-20T02:37:50.625Z,92.36269629062214
2023-05-20T02:40:46.230Z,92.22980463098129
2023-05-20T02:43:43.768Z,92.0519299199475
2023-05-20T02:46:39.337Z,92.26625078243354
2023-05-20T02:49:35.888Z,91.3704317799257
2023-05-20T02:52:31.452Z,91.74598305465636
2023-05-20T02:55:28.020Z,91.72451064328025
2023-05-20T02:58:26.576Z,92.44337258153942
2023-05-20T03:01:24.153Z,91.70982789517845
2023-05-20T03:04:21.870Z,90.50133360570676
2023-05-20T03:07:19.206Z,90.33578790211965
2023-05-20T03:10:15.781Z,90.27935981565754
2023-05-20T03:13:11.460Z,90.23211839435687
2023-05-20T03:16:06.961Z,90.78318312572723
2023-05-20T03:19:02.556Z,89.84942416433695
2023-05-20T03:21:58.020Z,88.94960422765448
2023-05-20T03:24:56.599Z,88.54611847297758
2023-05-20T03:27:53.150Z,91.20855200586922
2023-05-20T03:30:49.700Z,91.29419791103233
2023-05-20T03:33:47.244Z,91.12685572549795
2023-05-20T03:36:42.811Z,89.5202465557092
2023-05-20T03:39:38.392Z,89.15642868380367
2023-05-20T03:42:33.919Z,90.17009372194443
2023-05-20T03:45:33.711Z,91.27113448842798
2023-05-20T03:48:29.080Z,91.09002232143912
2023-05-20T03:51:25.602Z,91.48039086176851
2023-05-20T03:54:21.163Z,91.06988739576177
2023-05-20T03:57:19.741Z,91.17941513751286
2023-05-20T04:00:16.285Z,90.96849126926716
2023-05-20T04:03:11.917Z,90.12228614184872
2023-05-20T04:06:07.361Z,88.78394238475428
2023-05-20T04:09:03.976Z,89.38980709097349
2023-05-20T04:11:59.542Z,88.67745792858443
2023-05-20T04:14:55.084Z,88.3892119725465
2023-05-20T04:17:51.732Z,88.69892336354906
2023-05-20T04:20:48.222Z,89.42235580514179
2023-05-20T04:23:43.752Z,89.95219246046624
2023-05-20T04:26:39.323Z,89.72137866106529
2023-05-20T04:29:36.949Z,89.6014328168084
2023-05-20T04:32:34.526Z,89.02509401329706
2023-05-20T04:35:31.108Z,88.93001320861737
2023-05-20T04:38:29.906Z,88.8636033580109
2023-05-20T04:41:27.113Z,88.81313127499823
2023-05-20T04:44:24.704Z,88.6094627930468
2023-05-20T04:47:20.262Z,87.64846858920822
2023-05-20T04:50:16.850Z,87.39054131991283
2023-05-20T04:53:13.336Z,88.00569728322691
2023-05-20T04:56:10.910Z,87.67789773935061
2023-05-20T04:59:09.477Z,86.93412871816126
2023-05-20T05:02:05.030Z,86.70820925988458
2023-05-20T05:05:00.616Z,86.18224065201045
2023-05-20T05:07:56.140Z,85.31314994239763
2023-05-20T05:10:53.718Z,85.08027922538379
2023-05-20T05:13:49.217Z,84.5797975350478
2023-05-20T05:16:45.807Z,84.71031267603416
2023-05-20T05:19:41.407Z,85.05692670757846
2023-05-20T05:22:39.942Z,85.11273845728148
2023-05-20T05:25:36.531Z,84.19623649086499
2023-05-20T05:28:33.100Z,84.39714778729403
2023-05-20T05:31:28.671Z,84.4835339073092
2023-05-20T05:34:24.193Z,84.02808319001366
2023-05-20T05:37:19.768Z,83.34528413175134
2023-05-20T05:40:15.398Z,84.3001451967044
2023-05-20T05:43:10.838Z,84.1045875591047
2023-05-20T05:46:06.386Z,84.62449192466006
2023-05-20T05:49:02.008Z,83.68621187118194
2023-05-20T05:52:00.544Z,83.5158191275446
2023-05-20T05:54:56.131Z,82.98838806373685
2023-05-20T05:57:52.670Z,82.33115047027623
2023-05-20T06:00:51.237Z,81.63055329331782
2023-05-20T06:03:46.923Z,81.3837803394659
2023-05-20T06:06:42.302Z,79.74021059025526
2023-05-20T06:09:38.897Z,79.45586159469435
2023-05-20T06:12:34.437Z,79.3663646562532
2023-05-20T06:15:30.034Z,79.3318509042963
2023-05-20T06:18:25.560Z,78.8609232266739
2023-05-20T06:21:26.120Z,78.34417012039411
2023-05-20T06:24:24.245Z,78.19817769019151
2023-05-20T06:27:23.234Z,77.2843514273775
2023-05-20T06:30:18.801Z,76.5482189357045
2023-05-20T06:33:14.321Z,76.39099663919312
2023-05-20T06:36:09.882Z,76.25664708767502
2023-05-20T06:39:11.477Z,77.29802972829532
2023-05-20T06:42:06.996Z,76.2159885612215
2023-05-20T06:45:02.610Z,76.39673824606477
2023-05-20T06:47:58.179Z,75.62677033417582
2023-05-20T06:50:53.705Z,75.39002589753495
2023-05-20T06:53:49.262Z,74.86089174807462
2023-05-20T06:56:44.840Z,73.95954159249172
2023-05-20T06:59:41.419Z,73.57878117681497
2023-05-20T07:02:37.006Z,73.72457315613784
2023-05-20T07:05:32.702Z,73.04263860856197
2023-05-20T07:08:29.063Z,71.8489886293969
2023-05-20T07:11:28.682Z,72.7300187600112
2023-05-20T07:14:25.178Z,71.87715507543896
2023-05-20T07:17:20.708Z,70.59864891767566
2023-05-20T07:20:16.300Z,68.61178551696008
2023-05-20T07:23:13.292Z,67.37331027782848
2023-05-20T07:26:10.436Z,67.63051080259423
2023-05-20T07:29:07.992Z,67.90632537600392
2023-05-20T07:32:05.763Z,67.33109077204125
2023-05-20T07:35:01.075Z,67.0197583418086
2023-05-20T07:37:56.636Z,65.73803789476442
2023-05-20T07:40:52.227Z,64.1269414740406
2023-05-20T07:43:47.741Z,63.39720584254206
2023-05-20T07:46:43.465Z,63.314889670089485
2023-05-20T07:49:38.956Z,64.5027389575253
2023-05-20T07:52:44.115Z,62.16964821070357
2023-05-20T07:55:37.154Z,62.60677870769107
2023-05-20T07:58:32.573Z,61.3056817741476
2023-05-20T08:01:29.147Z,59.435809690715736
2023-05-20T08:04:27.010Z,59.506421601004476
2023-05-20T08:07:24.283Z,59.779729918198264
2023-05-20T08:10:19.781Z,58.86681982199828
2023-05-20T08:13:15.376Z,58.13954388422447
2023-05-20T08:16:10.923Z,58.38417505430433
2023-05-20T08:19:08.559Z,57.18723180787548
2023-05-20T08:22:06.063Z,56.83079124657173
2023-05-20T08:25:01.672Z,57.83562363264748
2023-05-20T08:27:58.169Z,55.07759984314978
2023-05-20T08:30:54.783Z,56.48876488039824
2023-05-20T08:33:53.258Z,56.305553880123604
2023-05-20T08:36:51.827Z,56.33118146919877
2023-05-20T08:39:49.409Z,55.554205045107025
2023-05-20T08:42:44.966Z,54.17186347324896
2023-05-20T08:45:42.512Z,50.216462227322246
2023-05-20T08:48:40.068Z,52.85934604867416
2023-05-20T08:51:38.624Z,50.900140077414136
2023-05-20T08:54:40.177Z,49.485140467762506
2023-05-20T08:57:37.737Z,47.416200932462516
2023-05-20T09:00:33.299Z,48.3431162927552
2023-05-20T09:03:29.860Z,47.97773677291814
2023-05-20T09:06:25.452Z,46.94705053727478
2023-05-20T09:09:23.006Z,48.256885733689295
2023-05-20T09:12:20.482Z,47.240184812471526
2023-05-20T09:15:16.065Z,44.76627652694702
2023-05-20T09:18:11.676Z,45.42241575784015
2023-05-20T09:21:10.197Z,46.73676885029293
2023-05-20T09:24:08.759Z,44.9104386404189
2023-05-20T09:27:05.295Z,44.50220330572479
2023-05-20T09:30:06.875Z,45.318050990285386
2023-05-20T09:33:04.430Z,43.960889825767964
2023-05-20T09:36:02.954Z,44.213555186933895
2023-05-20T09:39:04.551Z,44.014995910681584
2023-05-20T09:42:07.051Z,44.250552561621944
2023-05-20T09:45:03.623Z,44.14356762892873
2023-05-20T09:48:02.250Z,43.99439513039566
2023-05-20T09:50:57.739Z,45.21015549724614
2023-05-20T09:53:55.291Z,43.82065906229133
2023-05-20T09:56:53.858Z,42.04447252686407
2023-05-20T09:59:50.390Z,42.038939185904105
2023-05-20T10:02:48.072Z,41.90744319472705
2023-05-20T10:05:52.489Z,42.303139039562076
2023-05-20T10:09:11.047Z,43.93797619718812
2023-05-20T10:12:17.541Z,42.173247202338544
2023-05-20T10:15:25.092Z,40.653703137696525
2023-05-20T10:18:30.620Z,42.60907804582523
2023-05-20T10:24:37.720Z,41.92180285387792
2023-05-20T10:27:45.218Z,42.59848709714231
2023-05-20T10:30:49.725Z,41.96818543784407
2023-05-20T10:33:49.474Z,42.00934165070561
2023-05-20T10:36:58.881Z,40.11932832135612
2023-05-20T10:40:06.383Z,39.140942368353656
2023-05-20T10:43:06.900Z,39.37095428114348
2023-05-20T10:46:07.504Z,39.60727186464853
2023-05-20T10:49:06.253Z,37.36918372184985
2023-05-20T10:52:04.603Z,38.057256181773134
2023-05-20T10:55:01.150Z,38.53526561568807
2023-05-20T10:57:57.667Z,39.79590006552013
2023-05-20T11:00:54.298Z,37.081517326680235
2023-05-20T11:03:55.847Z,37.47859774675734
2023-05-20T11:06:53.336Z,37.04073893203657
2023-05-20T11:09:49.904Z,36.755318469882305
2023-05-20T11:12:45.486Z,35.899794649811845
2023-05-20T11:15:44.043Z,35.00471525729711
2023-05-20T11:18:39.663Z,33.71618551567558
2023-05-20T11:21:40.161Z,34.672055268514974
2023-05-20T11:24:36.690Z,35.185087648027356
2023-05-20T11:27:34.271Z,33.5463256825941
2023-05-20T11:30:30.842Z,33.34917847240659
2023-05-20T11:33:30.385Z,34.946363322416964
2023-05-20T11:36:28.936Z,34.91576163003664
2023-05-20T11:39:24.469Z,33.42745834005245
2023-05-20T11:42:22.028Z,34.004192772205585
2023-05-20T11:45:17.607Z,32.925333568140395
2023-05-20T11:48:15.242Z,35.83382786030809
2023-05-20T11:51:12.711Z,35.61204724326952
2023-05-20T11:54:12.254Z,35.21217057157347
2023-05-20T11:57:08.817Z,35.08686068607924
2023-05-20T12:00:10.358Z,36.591620845624924
2023-05-20T12:03:05.989Z,38.31093225941381
2023-05-20T12:06:02.498Z,35.174842251603664
2023-05-20T12:09:00.051Z,36.953748923243424
2023-05-20T12:11:56.611Z,37.557861516132
2023-05-20T12:14:52.212Z,35.29619578278989
2023-05-20T12:17:49.785Z,35.247903710586066
2023-05-20T12:20:47.289Z,35.21455245495873
2023-05-20T12:23:42.878Z,34.57486187698535
2023-05-20T12:26:38.409Z,33.71491761296893
2023-05-20T12:29:33.993Z,35.86000698738401
2023-05-20T12:32:29.556Z,35.938206646448435
2023-05-20T12:35:26.033Z,35.56581620885521
2023-05-20T12:38:21.663Z,35.95575201047647
2023-05-20T12:41:17.227Z,35.44956021002617
2023-05-20T12:44:12.770Z,33.825271606953784
2023-05-20T12:47:09.300Z,35.32007264379928
2023-05-20T12:50:05.916Z,34.45474200595791
2023-05-20T12:53:01.435Z,32.878391097205125
2023-05-20T12:55:56.974Z,32.31548297674209
2023-05-20T12:58:52.565Z,33.150722357874486
2023-05-20T13:01:48.109Z,32.34461200560551
2023-05-20T13:04:43.688Z,33.77083625854706
2023-05-20T13:07:40.242Z,32.13894940359112
2023-05-20T13:10:37.062Z,30.303481539102293
2023-05-20T13:13:32.400Z,31.57108063107442
2023-05-20T13:16:28.982Z,29.141084082487655
2023-05-20T13:19:24.538Z,30.0327880176378
2023-05-20T13:22:21.064Z,28.528703711753128
2023-05-20T13:25:17.599Z,27.710718043645958
2023-05-20T13:28:18.153Z,27.835272741590664
2023-05-20T13:31:13.758Z,30.025407321605506
2023-05-20T13:34:09.330Z,30.606884722961194
2023-05-20T13:37:05.832Z,29.586291976480318
2023-05-20T13:40:02.466Z,29.92808276500183
2023-05-20T13:42:58.977Z,31.744815780711484
2023-05-20T13:45:54.542Z,28.625633364148126
2023-05-20T13:48:51.070Z,27.233976076618806
2023-05-20T13:51:47.621Z,28.869559299860047
2023-05-20T13:54:46.201Z,29.96663488570914
2023-05-20T13:57:42.758Z,27.299365081979932
2023-05-20T14:00:41.319Z,27.550173455366625
2023-05-20T14:03:42.033Z,26.89594909059395
2023-05-20T14:06:37.380Z,27.753758348927885
2023-05-20T14:09:34.968Z,27.373284215833472
2023-05-20T14:12:31.542Z,26.557501709564676
2023-05-20T14:15:30.071Z,28.26563025535905
2023-05-20T14:18:25.624Z,29.570308909519085
2023-05-20T14:21:21.186Z,27.470555980728548
2023-05-20T14:24:16.763Z,24.196380685367572
2023-05-20T14:27:14.330Z,23.833004663492154
2023-05-20T14:30:10.890Z,25.125712690850555
2023-05-20T14:33:06.445Z,26.01771150617967
2023-05-20T14:36:01.985Z,25.871174025473824
2023-05-20T14:38:58.558Z,26.045884998079327
2023-05-20T14:41:54.145Z,26.192383467063358
2023-05-20T14:44:49.968Z,27.511811068668298
2023-05-20T14:47:48.342Z,24.375718286110367
2023-05-20T14:50:43.812Z,23.097496297293358
2023-05-20T14:53:39.368Z,21.758874694023515
2023-05-20T14:56:34.968Z,23.240432687113824
2023-05-20T14:59:30.458Z,23.270486694812572
2023-05-20T15:02:26.170Z,21.99255938639014
2023-05-20T15:05:21.628Z,21.48696530578938
2023-05-20T15:08:17.127Z,21.459469326023473
2023-05-20T15:11:12.695Z,21.324427595261863
2023-05-20T15:14:08.307Z,21.633181094854958
2023-05-20T15:17:05.076Z,20.06835910777591
2023-05-20T15:20:01.421Z,22.69564057886778
2023-05-20T15:22:58.054Z,22.474922925608578
2023-05-20T15:25:58.509Z,19.476894013229455
2023-05-20T15:28:56.081Z,21.108763413615225
2023-05-20T15:31:52.656Z,20.439768982675524
2023-05-20T15:34:49.209Z,22.818777193015332
2023-05-20T15:37:44.802Z,25.280354292113785
2023-05-20T15:40:42.338Z,25.89377243305114
2023-05-20T15:43:37.864Z,26.96849259048517
2023-05-20T15:46:33.444Z,27.073212967120813
2023-05-20T15:49:28.973Z,27.528680393230974
2023-05-20T15:52:24.613Z,28.14436166573932
2023-05-20T15:55:23.166Z,28.37567503929857
2023-05-20T15:58:18.708Z,24.952781289912092
2023-05-20T16:01:14.249Z,26.97562798143001
2023-05-20T16:04:09.982Z,24.559200866771583
2023-05-20T16:07:05.353Z,24.693295255658203
2023-05-20T16:10:00.965Z,26.58588241325425
2023-05-20T16:12:56.471Z,29.472623432667525
2023-05-20T16:15:52.120Z,32.062541000542616
2023-05-20T16:18:47.618Z,38.686121905806466
2023-05-20T16:21:43.213Z,38.63665633944711
2023-05-20T16:24:39.737Z,40.42221265763169
2023-05-20T16:27:35.297Z,41.41481909473105
2023-05-20T16:30:30.841Z,42.654568138512225
2023-05-20T16:33:26.428Z,44.21659461669321
2023-05-20T16:36:23.001Z,45.019780586308244
2023-05-20T16:39:18.550Z,45.76284871633936
2023-05-20T16:42:15.100Z,46.122440565560545
2023-05-20T16:45:11.688Z,47.646849668381336
2023-05-20T16:48:08.237Z,46.423991431393105
2023-05-20T16:51:03.811Z,47.66239939227744
2023-05-20T16:53:59.374Z,47.00523730472784
2023-05-20T16:56:54.860Z,46.49154475786167
2023-05-20T16:59:51.474Z,46.56402641210667
2023-05-20T17:02:47.028Z,47.88326003513014
2023-05-20T17:05:43.593Z,49.06918030846941
2023-05-20T17:08:39.184Z,48.675495326986464
2023-05-20T17:11:34.706Z,49.097362473966406
2023-05-20T17:14:30.271Z,49.75992385525768
2023-05-20T17:17:25.892Z,51.48768853048306
2023-05-20T17:20:21.388Z,52.20776417258108
2023-05-20T17:23:16.974Z,51.80530910884779
2023-05-20T17:26:12.550Z,52.03911594151311
2023-05-20T17:29:08.093Z,52.476291625144476
2023-05-20T17:32:04.658Z,52.72365709131982
2023-05-20T17:35:02.230Z,53.13036327075963
2023-05-20T17:37:57.777Z,55.68752348012065
2023-05-20T17:40:53.303Z,55.11083577967167
2023-05-20T17:43:48.876Z,52.616456125397
2023-05-20T17:46:44.477Z,51.92695345044981
2023-05-20T17:49:41.013Z,51.38738266492744
2023-05-20T17:52:37.534Z,50.98535627379652
2023-05-20T17:55:36.094Z,51.714583230814796
2023-05-20T17:58:33.649Z,51.94115288320918
2023-05-20T18:01:29.299Z,52.910870077952005
2023-05-20T18:04:25.800Z,52.54524018720607
2023-05-20T18:07:22.360Z,51.83352595586049
2023-05-20T18:10:17.919Z,51.291311441037315
2023-05-20T18:13:14.475Z,52.1211377328168
2023-05-20T18:16:10.022Z,52.32567451999108
2023-05-20T18:19:05.594Z,51.89161016017268
2023-05-20T18:22:02.134Z,56.06278680958684
2023-05-20T18:24:57.708Z,59.956238493329245
2023-05-20T18:27:53.268Z,60.74530190205078
2023-05-20T18:30:48.830Z,63.12269761202599
2023-05-20T18:33:45.427Z,63.74328515304439
2023-05-20T18:36:40.975Z,65.36874062983028
2023-05-20T18:39:36.503Z,66.04297135617566
2023-05-20T18:42:32.050Z,64.11068544753024
2023-05-20T18:45:27.694Z,63.62501180097439
2023-05-20T18:48:27.128Z,63.28869432183842
2023-05-20T18:51:22.760Z,62.510994750940306
2023-05-20T18:54:18.272Z,61.71041398857337
2023-05-20T18:57:13.886Z,59.31465277145114
2023-05-20T19:00:11.443Z,60.60614979362285
2023-05-20T19:03:07.071Z,60.625202983554374
2023-05-20T19:06:02.591Z,59.187220353963504
2023-05-20T19:09:01.111Z,61.55081027588923
2023-05-20T19:11:58.688Z,61.95678079384478
2023-05-20T19:14:56.190Z,62.24335284713463
2023-05-20T19:17:51.838Z,62.365173891580646
2023-05-20T19:20:47.347Z,63.28569067474349
2023-05-20T19:23:42.908Z,63.921931034254484
2023-05-20T19:26:39.481Z,64.29280228553111
2023-05-20T19:29:34.996Z,65.5533994052258
2023-05-20T19:32:30.610Z,66.22817873760395
2023-05-20T19:35:26.108Z,68.28346642986715
2023-05-20T19:38:21.705Z,68.65632745645115
2023-05-20T19:41:19.252Z,69.17410551087964
2023-05-20T19:44:14.826Z,69.66566215858329
2023-05-20T19:47:11.374Z,69.72976683463418
2023-05-20T19:50:07.950Z,70.32194138951722
2023-05-20T19:53:06.538Z,70.38252713688404
2023-05-20T19:56:02.012Z,70.37678857133405
2023-05-20T19:59:01.839Z,71.22845989829028
2023-05-20T20:02:02.269Z,71.2402731449302
2023-05-20T20:04:58.751Z,71.70524803018031
2023-05-20T20:07:56.248Z,71.52348542335473
2023-05-20T20:10:52.819Z,71.58480016917144
2023-05-20T20:13:48.430Z,71.24978303474371
2023-05-20T20:16:47.966Z,70.73936968905954
2023-05-20T20:19:45.486Z,70.17806178004204
2023-05-20T20:22:42.061Z,69.97209820845376
2023-05-20T20:25:38.630Z,70.33706076686279
2023-05-20T20:28:34.199Z,70.46112874200031
2023-05-20T20:31:30.789Z,70.84398077728305
2023-05-20T20:34:27.250Z,70.53960642367427
2023-05-20T20:37:26.871Z,70.40713405325442
2023-05-20T20:40:23.411Z,70.40047645814757
2023-05-20T20:43:21.569Z,70.66266060851214
2023-05-20T20:46:18.661Z,70.97969326160825
2023-05-20T20:49:18.072Z,72.1846583553192
2023-05-20T20:52:14.613Z,71.91595522241997
2023-05-20T20:55:14.204Z,72.52432405238004
2023-05-20T20:58:10.744Z,71.53242149488483
2023-05-20T21:01:09.330Z,72.04107971899202
2023-05-20T21:04:05.862Z,73.3958754734329
2023-05-20T21:07:02.437Z,73.77863031119512
2023-05-20T21:09:57.995Z,74.52050313097453
2023-05-20T21:12:53.591Z,73.1557926669456
2023-05-20T21:15:49.118Z,73.5259522478228
2023-05-20T21:18:47.719Z,74.66520642277912
2023-05-20T21:21:45.212Z,74.82549149548777
2023-05-20T21:24:43.802Z,74.70741916876813
2023-05-20T21:27:41.349Z,76.36276159040092
2023-05-20T21:30:37.916Z,74.69836253442844
2023-05-20T21:33:33.429Z,75.63841847007653
2023-05-20T21:36:29.019Z,75.34866814149576
2023-05-20T21:39:25.549Z,75.83298994850263
2023-05-20T21:42:21.115Z,76.25136779142207
2023-05-20T21:45:17.719Z,77.31979942668515
2023-05-20T21:48:13.231Z,77.79047327461826
2023-05-20T21:51:08.763Z,77.44006035432969
2023-05-20T21:54:05.421Z,76.3670387232626
2023-05-20T21:57:02.947Z,78.05287557053965
2023-05-20T21:59:58.478Z,77.6165227795725
2023-05-20T22:02:54.088Z,77.91483362699809
2023-05-20T22:05:49.626Z,77.80380314224448
2023-05-20T22:08:45.153Z,77.59902080683024
2023-05-20T22:11:41.734Z,77.89487394407396
2023-05-20T22:14:37.278Z,77.98428813383171
2023-05-20T22:17:34.075Z,78.49807974327143
2023-05-20T22:20:33.393Z,79.13523615031917
2023-05-20T22:23:29.138Z,78.2504374498695
2023-05-20T22:26:25.508Z,78.68169668339573
2023-05-20T22:29:22.138Z,79.10384641613487
2023-05-20T22:32:17.648Z,77.13169327811964
2023-05-20T22:35:14.208Z,77.60015255655516
2023-05-20T22:38:09.808Z,78.76091313786303
2023-05-20T22:41:06.293Z,77.88541067967311
2023-05-20T22:44:01.862Z,78.82534932433737
2023-05-20T22:46:59.466Z,78.97526829862498
2023-05-20T22:49:57.001Z,78.76062713452554
2023-05-20T22:52:56.538Z,79.29249187328527
2023-05-20T22:55:53.124Z,78.86784429735746
2023-05-20T22:58:48.669Z,79.11549622588343
2023-05-20T23:01:45.284Z,78.924907728112
2023-05-20T23:04:40.769Z,78.71629008288198
2023-05-20T23:07:38.353Z,78.6943682477906
2023-05-20T23:10:33.906Z,78.36952701929849
2023-05-20T23:13:29.472Z,78.8114942758674
2023-05-20T23:16:27.034Z,78.99694811718685
2023-05-20T23:19:22.677Z,78.88701381193725
2023-05-20T23:22:18.139Z,79.45504198147016
2023-05-20T23:25:13.739Z,79.14389648482637
2023-05-20T23:28:12.244Z,79.08454457106617
2023-05-20T23:31:08.859Z,79.6263898076626
2023-05-20T23:34:04.451Z,79.33395346157414
2023-05-20T23:37:00.955Z,79.64426839807743
2023-05-20T23:39:57.498Z,79.68784753003618
2023-05-20T23:42:54.065Z,80.02705386482924
2023-05-20T23:45:49.646Z,80.2893041864601
2023-05-20T23:48:48.173Z,79.99837651753165
2023-05-20T23:51:44.719Z,79.74504175638472
2023-05-20T23:54:40.296Z,79.90095682704508
2023-05-20T23:57:36.892Z,79.43885323995673
